createdAt,value
2017-12-04T00:00:24.413Z,101688.91
2017-12-04T00:01:26.909Z,101693.43
2017-12-04T00:02:29.393Z,101698.91
2017-12-04T00:03:31.858Z,101700.69
2017-12-04T00:04:34.353Z,101702.60
2017-12-04T00:05:36.834Z,101701.37
2017-12-04T00:06:39.334Z,101700.96
2017-12-04T00:07:41.816Z,101702.88
2017-12-04T00:08:44.287Z,101699.19
2017-12-04T00:09:46.769Z,101699.19
2017-12-04T00:10:49.255Z,101698.22
2017-12-04T00:11:51.722Z,101697.95
2017-12-04T00:12:54.196Z,101697.95
2017-12-04T00:13:56.675Z,101698.64
2017-12-04T00:14:59.156Z,101702.89
2017-12-04T00:16:01.631Z,101699.88
2017-12-04T00:17:04.101Z,101706.86
2017-12-04T00:18:06.588Z,101704.81
2017-12-04T00:19:09.055Z,101701.95
2017-12-04T00:20:11.527Z,101697.56
2017-12-04T00:21:14.008Z,101707.84
2017-12-04T00:22:16.479Z,101697.58
2017-12-04T00:23:18.942Z,101701.82
2017-12-04T00:24:21.410Z,101703.30
2017-12-04T00:25:23.878Z,101701.38
2017-12-04T00:26:26.368Z,101708.23
2017-12-04T00:27:28.843Z,101705.63
2017-12-04T00:28:31.328Z,101711.80
2017-12-04T00:29:33.817Z,101706.59
2017-12-04T00:30:36.284Z,101707.55
2017-12-04T00:31:38.745Z,101706.05
2017-12-04T00:32:41.233Z,101709.20
2017-12-04T00:33:43.717Z,101708.79
2017-12-04T00:34:46.205Z,101706.60
2017-12-04T00:35:48.689Z,101700.72
2017-12-04T00:36:51.170Z,101705.38
2017-12-04T00:37:53.656Z,101713.17
2017-12-04T00:38:56.148Z,101711.94
2017-12-04T00:39:58.628Z,101713.04
2017-12-04T00:41:01.100Z,101710.44
2017-12-04T00:42:03.585Z,101710.98
2017-12-04T00:43:06.141Z,101717.16
2017-12-04T00:44:08.626Z,101714.96
2017-12-04T00:45:11.090Z,101714.66
2017-12-04T00:46:13.554Z,101711.65
2017-12-04T00:47:16.046Z,101713.43
2017-12-04T00:48:18.522Z,101719.86
2017-12-04T00:49:21.007Z,101710.02
2017-12-04T00:50:23.492Z,101710.70
2017-12-04T00:51:25.967Z,101709.47
2017-12-04T00:52:28.444Z,101705.50
2017-12-04T00:53:30.915Z,101702.77
2017-12-04T00:54:33.401Z,101710.16
2017-12-04T00:55:35.888Z,101701.67
2017-12-04T00:56:38.372Z,101701.40
2017-12-04T00:57:40.860Z,101702.62
2017-12-04T00:58:43.345Z,101700.98
2017-12-04T00:59:45.824Z,101701.80
2017-12-04T01:00:48.287Z,101707.56
2017-12-04T01:01:50.758Z,101703.03
2017-12-04T01:02:53.222Z,101704.01
2017-12-04T01:03:55.719Z,101703.16
2017-12-04T01:04:58.192Z,101702.05
2017-12-04T01:06:00.672Z,101700.15
2017-12-04T01:07:03.139Z,101707.80
2017-12-04T01:08:05.611Z,101713.29
2017-12-04T01:09:08.084Z,101711.66
2017-12-04T01:10:10.578Z,101711.66
2017-12-04T01:11:13.059Z,101713.16
2017-12-04T01:12:15.523Z,101711.09
2017-12-04T01:13:17.998Z,101709.85
2017-12-04T01:14:20.466Z,101716.70
2017-12-04T01:15:22.938Z,101709.44
2017-12-04T01:16:25.570Z,101711.90
2017-12-04T01:17:28.035Z,101715.87
2017-12-04T01:18:30.526Z,101719.02
2017-12-04T01:19:33.012Z,101717.65
2017-12-04T01:20:35.607Z,101713.54
2017-12-04T01:21:38.092Z,101710.94
2017-12-04T01:22:40.559Z,101712.45
2017-12-04T01:23:43.028Z,101717.11
2017-12-04T01:24:45.517Z,101713.95
2017-12-04T01:25:47.985Z,101719.31
2017-12-04T01:26:50.478Z,101713.56
2017-12-04T01:27:52.953Z,101715.77
2017-12-04T01:28:55.444Z,101721.37
2017-12-04T01:29:57.931Z,101723.58
2017-12-04T01:31:00.395Z,101721.94
2017-12-04T01:32:02.868Z,101725.91
2017-12-04T01:33:05.368Z,101720.98
2017-12-04T01:34:07.864Z,101726.98
2017-12-04T01:35:10.351Z,101724.49
2017-12-04T01:36:12.822Z,101722.72
2017-12-04T01:37:15.305Z,101735.45
2017-12-04T01:38:17.779Z,101722.99
2017-12-04T01:39:20.260Z,101726.69
2017-12-04T01:40:22.730Z,101717.94
2017-12-04T01:41:25.241Z,101717.52
2017-12-04T01:42:27.707Z,101717.25
2017-12-04T01:43:30.194Z,101727.66
2017-12-04T01:44:32.675Z,101719.58
2017-12-04T01:45:35.138Z,101723.83
2017-12-04T01:46:38.507Z,101726.30
2017-12-04T01:48:51.188Z,101731.23
2017-12-04T01:49:53.672Z,101729.45
2017-12-04T01:50:56.138Z,101729.73
2017-12-04T01:51:58.624Z,101727.13
2017-12-04T01:53:01.105Z,101726.04
2017-12-04T01:54:03.735Z,101724.09
2017-12-04T01:55:06.241Z,101723.28
2017-12-04T01:56:08.735Z,101722.73
2017-12-04T01:57:11.207Z,101726.98
2017-12-04T01:58:13.692Z,101730.27
2017-12-04T01:59:16.167Z,101726.85
2017-12-04T02:00:18.668Z,101731.38
2017-12-04T02:01:21.142Z,101732.61
2017-12-04T02:02:23.632Z,101727.12
2017-12-04T02:03:26.113Z,101730.97
2017-12-04T02:04:28.599Z,101737.12
2017-12-04T02:05:31.090Z,101734.67
2017-12-04T02:06:33.554Z,101738.78
2017-12-04T02:07:36.036Z,101734.80
2017-12-04T02:08:38.518Z,101741.52
2017-12-04T02:09:40.997Z,101747.10
2017-12-04T02:10:43.489Z,101750.80
2017-12-04T02:11:45.984Z,101750.94
2017-12-04T02:12:48.460Z,101744.37
2017-12-04T02:13:50.955Z,101750.80
2017-12-04T02:14:53.419Z,101746.42
2017-12-04T02:15:55.911Z,101748.48
2017-12-04T02:16:58.393Z,101748.07
2017-12-04T02:18:00.881Z,101753.82
2017-12-04T02:19:03.370Z,101752.86
2017-12-04T02:20:05.849Z,101756.14
2017-12-04T02:21:08.354Z,101758.47
2017-12-04T02:22:10.823Z,101756.03
2017-12-04T02:23:13.286Z,101757.52
2017-12-04T02:24:15.760Z,101758.36
2017-12-04T02:25:18.241Z,101752.04
2017-12-04T02:26:20.727Z,101758.48
2017-12-04T02:27:23.205Z,101753.98
2017-12-04T02:28:25.770Z,101751.77
2017-12-04T02:29:28.254Z,101747.80
2017-12-04T02:30:30.746Z,101750.26
2017-12-04T02:31:33.231Z,101747.09
2017-12-04T02:32:35.690Z,101748.45
2017-12-04T02:33:38.173Z,101745.98
2017-12-04T02:34:40.647Z,101749.95
2017-12-04T02:35:43.129Z,101750.09
2017-12-04T02:36:45.626Z,101747.34
2017-12-04T02:37:48.109Z,101747.23
2017-12-04T02:38:50.606Z,101749.13
2017-12-04T02:39:53.079Z,101749.13
2017-12-04T02:40:55.546Z,101747.48
2017-12-04T02:41:58.049Z,101743.92
2017-12-04T02:43:00.518Z,101745.58
2017-12-04T02:44:03.018Z,101741.61
2017-12-04T02:45:05.480Z,101737.64
2017-12-04T02:46:07.944Z,101739.97
2017-12-04T02:47:10.435Z,101744.08
2017-12-04T02:48:12.906Z,101736.55
2017-12-04T02:49:15.371Z,101734.50
2017-12-04T02:50:17.841Z,101730.94
2017-12-04T02:51:20.321Z,101733.27
2017-12-04T02:52:22.820Z,101740.67
2017-12-04T02:53:25.293Z,101738.48
2017-12-04T02:54:27.775Z,101740.27
2017-12-04T02:55:30.239Z,101737.81
2017-12-04T02:56:32.725Z,101742.06
2017-12-04T02:57:35.234Z,101739.02
2017-12-04T02:58:37.719Z,101736.97
2017-12-04T02:59:40.196Z,101736.15
2017-12-04T03:00:42.663Z,101736.84
2017-12-04T03:01:45.129Z,101732.73
2017-12-04T03:02:47.619Z,101728.77
2017-12-04T03:03:50.103Z,101724.39
2017-12-04T03:04:52.577Z,101725.90
2017-12-04T03:05:55.038Z,101731.52
2017-12-04T03:06:57.498Z,101730.42
2017-12-04T03:07:59.987Z,101726.32
2017-12-04T03:09:02.450Z,101729.06
2017-12-04T03:10:04.937Z,101732.05
2017-12-04T03:11:07.410Z,101727.23
2017-12-04T03:12:09.884Z,101728.47
2017-12-04T03:13:12.367Z,101725.60
2017-12-04T03:14:14.850Z,101729.72
2017-12-04T03:15:17.315Z,101725.34
2017-12-04T03:16:19.778Z,101722.06
2017-12-04T03:17:22.251Z,101725.08
2017-12-04T03:18:24.748Z,101722.61
2017-12-04T03:19:27.257Z,101726.04
2017-12-04T03:20:29.748Z,101726.42
2017-12-04T03:21:32.234Z,101728.08
2017-12-04T03:22:34.714Z,101732.88
2017-12-04T03:23:37.206Z,101732.19
2017-12-04T03:24:39.685Z,101728.77
2017-12-04T03:25:42.175Z,101727.54
2017-12-04T03:26:44.642Z,101732.61
2017-12-04T03:27:47.102Z,101727.54
2017-12-04T03:28:49.603Z,101723.84
2017-12-04T03:29:52.068Z,101718.65
2017-12-04T03:30:54.536Z,101722.05
2017-12-04T03:31:57.020Z,101723.67
2017-12-04T03:32:59.501Z,101723.16
2017-12-04T03:34:01.996Z,101723.68
2017-12-04T03:35:04.462Z,101732.45
2017-12-04T03:36:07.062Z,101735.02
2017-12-04T03:37:09.535Z,101734.75
2017-12-04T03:38:12.017Z,101737.20
2017-12-04T03:39:14.508Z,101735.66
2017-12-04T03:40:16.980Z,101743.09
2017-12-04T03:41:19.447Z,101738.42
2017-12-04T03:42:21.935Z,101747.59
2017-12-04T03:43:24.420Z,101747.45
2017-12-04T03:44:26.901Z,101747.05
2017-12-04T03:45:29.366Z,101752.38
2017-12-04T03:46:31.854Z,101746.22
2017-12-04T03:47:34.318Z,101753.08
2017-12-04T03:48:36.797Z,101754.59
2017-12-04T03:49:39.297Z,101747.47
2017-12-04T03:50:41.782Z,101753.64
2017-12-04T03:51:44.246Z,101750.59
2017-12-04T03:52:46.724Z,101754.17
2017-12-04T03:53:49.209Z,101757.19
2017-12-04T03:54:51.732Z,101750.89
2017-12-04T03:55:54.212Z,101751.58
2017-12-04T03:56:56.697Z,101752.69
2017-12-04T03:57:59.159Z,101751.05
2017-12-04T03:59:01.636Z,101749.81
2017-12-04T04:00:04.137Z,101752.70
2017-12-04T04:01:06.619Z,101755.58
2017-12-04T04:02:09.099Z,101758.31
2017-12-04T04:03:11.582Z,101762.30
2017-12-04T04:04:14.071Z,101759.56
2017-12-04T04:05:16.564Z,101758.33
2017-12-04T04:06:19.027Z,101751.45
2017-12-04T04:07:21.491Z,101750.09
2017-12-04T04:08:23.977Z,101749.01
2017-12-04T04:09:26.438Z,101746.95
2017-12-04T04:10:28.923Z,101740.94
2017-12-04T04:11:31.396Z,101733.95
2017-12-04T04:12:33.872Z,101738.63
2017-12-04T04:13:36.353Z,101732.17
2017-12-04T04:14:38.841Z,101740.12
2017-12-04T04:15:41.326Z,101737.25
2017-12-04T04:16:43.829Z,101732.19
2017-12-04T04:17:46.309Z,101738.49
2017-12-04T04:18:48.796Z,101739.19
2017-12-04T04:19:51.284Z,101747.68
2017-12-04T04:20:53.774Z,101742.48
2017-12-04T04:21:56.256Z,101737.83
2017-12-04T04:22:58.835Z,101743.94
2017-12-04T04:24:01.303Z,101748.33
2017-12-04T04:25:03.784Z,101745.86
2017-12-04T04:26:06.280Z,101744.63
2017-12-04T04:27:08.746Z,101742.17
2017-12-04T04:28:11.211Z,101742.17
2017-12-04T04:29:13.696Z,101741.49
2017-12-04T04:30:16.158Z,101740.67
2017-12-04T04:31:18.660Z,101743.28
2017-12-04T04:32:21.131Z,101743.42
2017-12-04T04:33:23.615Z,101741.78
2017-12-04T04:34:26.099Z,101744.38
2017-12-04T04:35:28.563Z,101742.20
2017-12-04T04:36:31.051Z,101743.30
2017-12-04T04:37:33.514Z,101743.40
2017-12-04T04:38:35.983Z,101746.30
2017-12-04T04:39:38.475Z,101747.25
2017-12-04T04:40:40.942Z,101746.69
2017-12-04T04:41:43.460Z,101750.71
2017-12-04T04:42:45.949Z,101752.19
2017-12-04T04:43:48.419Z,101754.25
2017-12-04T04:44:50.899Z,101750.92
2017-12-04T04:45:53.366Z,101750.80
2017-12-04T04:46:55.850Z,101761.19
2017-12-04T04:47:58.340Z,101750.75
2017-12-04T04:49:00.809Z,101755.27
2017-12-04T04:50:03.278Z,101752.40
2017-12-04T04:51:05.788Z,101754.59
2017-12-04T04:52:08.271Z,101747.17
2017-12-04T04:53:10.734Z,101750.73
2017-12-04T04:54:13.214Z,101752.78
2017-12-04T04:55:15.703Z,101754.83
2017-12-04T04:56:18.170Z,101754.02
2017-12-04T04:57:20.677Z,101759.08
2017-12-04T04:58:23.152Z,101761.97
2017-12-04T04:59:25.633Z,101758.41
2017-12-04T05:00:28.117Z,101764.17
2017-12-04T05:01:30.609Z,101762.12
2017-12-04T05:02:33.074Z,101761.58
2017-12-04T05:03:35.559Z,101760.60
2017-12-04T05:04:38.022Z,101759.37
2017-12-04T05:05:40.510Z,101758.69
2017-12-04T05:06:42.987Z,101753.49
2017-12-04T05:07:45.469Z,101758.02
2017-12-04T05:08:47.953Z,101756.53
2017-12-04T05:09:50.418Z,101756.66
2017-12-04T05:10:52.893Z,101752.84
2017-12-04T05:11:55.362Z,101751.61
2017-12-04T05:12:57.852Z,101755.04
2017-12-04T05:14:00.314Z,101752.44
2017-12-04T05:15:02.797Z,101749.53
2017-12-04T05:16:05.285Z,101764.75
2017-12-04T05:17:07.754Z,101761.47
2017-12-04T05:18:10.239Z,101752.70
2017-12-04T05:19:12.702Z,101756.28
2017-12-04T05:20:15.214Z,101755.59
2017-12-04T05:21:17.682Z,101762.18
2017-12-04T05:22:20.166Z,101760.13
2017-12-04T05:23:22.639Z,101760.27
2017-12-04T05:24:25.112Z,101756.98
2017-12-04T05:25:27.595Z,101763.84
2017-12-04T05:26:30.085Z,101762.30
2017-12-04T05:27:32.542Z,101762.03
2017-12-04T05:28:35.003Z,101761.77
2017-12-04T05:29:37.511Z,101756.70
2017-12-04T05:30:39.994Z,101759.72
2017-12-04T05:31:42.458Z,101763.56
2017-12-04T05:32:44.923Z,101757.95
2017-12-04T05:33:47.422Z,101759.05
2017-12-04T05:34:49.904Z,101759.46
2017-12-04T05:35:52.382Z,101765.08
2017-12-04T05:36:54.875Z,101763.70
2017-12-04T05:37:57.377Z,101755.91
2017-12-04T05:38:59.953Z,101761.23
2017-12-04T05:40:02.429Z,101761.93
2017-12-04T05:41:04.904Z,101761.79
2017-12-04T05:42:07.374Z,101765.08
2017-12-04T05:43:09.856Z,101758.23
2017-12-04T05:44:12.336Z,101752.34
2017-12-04T05:45:14.839Z,101753.30
2017-12-04T05:46:17.302Z,101759.73
2017-12-04T05:47:19.786Z,101752.76
2017-12-04T05:48:22.274Z,101768.64
2017-12-04T05:49:24.767Z,101770.16
2017-12-04T05:50:27.247Z,101762.75
2017-12-04T05:51:29.793Z,101767.55
2017-12-04T05:52:32.278Z,101767.26
2017-12-04T05:53:34.773Z,101767.11
2017-12-04T05:54:37.260Z,101764.09
2017-12-04T05:55:39.746Z,101764.34
2017-12-04T05:56:42.232Z,101765.70
2017-12-04T05:57:44.723Z,101764.17
2017-12-04T05:58:47.202Z,101768.56
2017-12-04T05:59:49.690Z,101768.67
2017-12-04T06:00:52.170Z,101774.28
2017-12-04T06:01:54.657Z,101773.44
2017-12-04T06:02:57.126Z,101772.91
2017-12-04T06:03:59.600Z,101778.38
2017-12-04T06:05:02.078Z,101783.31
2017-12-04T06:06:04.558Z,101779.73
2017-12-04T06:07:07.027Z,101779.47
2017-12-04T06:08:09.503Z,101785.36
2017-12-04T06:09:11.978Z,101793.18
2017-12-04T06:10:14.447Z,101792.36
2017-12-04T06:11:16.918Z,101796.76
2017-12-04T06:12:19.382Z,101789.77
2017-12-04T06:13:21.860Z,101792.25
2017-12-04T06:14:24.330Z,101792.80
2017-12-04T06:15:26.811Z,101790.17
2017-12-04T06:16:29.278Z,101787.84
2017-12-04T06:17:31.742Z,101790.19
2017-12-04T06:18:34.215Z,101789.92
2017-12-04T06:19:36.725Z,101790.34
2017-12-04T06:20:39.204Z,101793.91
2017-12-04T06:21:41.691Z,101795.70
2017-12-04T06:22:44.166Z,101801.72
2017-12-04T06:23:46.634Z,101801.31
2017-12-04T06:24:49.103Z,101803.92
2017-12-04T06:25:51.585Z,101810.36
2017-12-04T06:26:54.068Z,101805.98
2017-12-04T06:27:56.640Z,101810.78
2017-12-04T06:28:59.137Z,101810.65
2017-12-04T06:30:01.621Z,101811.07
2017-12-04T06:31:04.104Z,101808.88
2017-12-04T06:32:06.598Z,101803.27
2017-12-04T06:33:09.074Z,101804.09
2017-12-04T06:34:11.538Z,101802.97
2017-12-04T06:35:14.011Z,101807.91
2017-12-04T06:36:16.489Z,101810.52
2017-12-04T06:37:18.989Z,101804.36
2017-12-04T06:38:21.464Z,101810.53
2017-12-04T06:39:23.961Z,101808.34
2017-12-04T06:40:26.418Z,101812.04
2017-12-04T06:41:28.913Z,101815.88
2017-12-04T06:42:31.480Z,101811.23
2017-12-04T06:43:33.969Z,101813.70
2017-12-04T06:44:36.506Z,101819.87
2017-12-04T06:45:38.974Z,101821.10
2017-12-04T06:46:41.439Z,101822.58
2017-12-04T06:47:43.921Z,101822.86
2017-12-04T06:48:46.404Z,101827.25
2017-12-04T06:49:48.890Z,101826.56
2017-12-04T06:50:51.370Z,101831.91
2017-12-04T06:51:53.915Z,101828.76
2017-12-04T06:52:56.396Z,101827.26
2017-12-04T06:53:58.897Z,101830.00
2017-12-04T06:55:01.483Z,101831.78
2017-12-04T06:56:04.201Z,101833.70
2017-12-04T06:57:06.684Z,101835.21
2017-12-04T06:58:09.225Z,101835.34
2017-12-04T06:59:11.716Z,101837.00
2017-12-04T07:00:14.191Z,101838.03
2017-12-04T07:01:16.681Z,101840.91
2017-12-04T07:02:19.171Z,101831.05
2017-12-04T07:03:21.718Z,101833.09
2017-12-04T07:04:24.191Z,101841.51
2017-12-04T07:05:26.738Z,101836.43
2017-12-04T07:06:29.223Z,101846.03
2017-12-04T07:07:31.755Z,101836.28
2017-12-04T07:08:34.250Z,101841.08
2017-12-04T07:09:36.738Z,101842.86
2017-12-04T07:10:39.250Z,101843.52
2017-12-04T07:11:41.727Z,101843.93
2017-12-04T07:12:44.230Z,101840.59
2017-12-04T07:13:46.740Z,101835.52
2017-12-04T07:14:49.218Z,101846.73
2017-12-04T07:15:51.690Z,101841.80
2017-12-04T07:16:54.190Z,101836.18
2017-12-04T07:17:56.719Z,101839.48
2017-12-04T07:18:59.185Z,101837.44
2017-12-04T07:20:01.674Z,101847.17
2017-12-04T07:21:04.162Z,101843.08
2017-12-04T07:22:06.667Z,101845.00
2017-12-04T07:23:09.142Z,101848.15
2017-12-04T07:24:11.632Z,101850.48
2017-12-04T07:25:14.102Z,101851.96
2017-12-04T07:26:16.608Z,101855.25
2017-12-04T07:27:19.074Z,101855.53
2017-12-04T07:28:21.548Z,101862.94
2017-12-04T07:29:24.041Z,101864.45
2017-12-04T07:30:26.518Z,101863.77
2017-12-04T07:31:29.008Z,101868.98
2017-12-04T07:32:31.478Z,101868.98
2017-12-04T07:33:33.959Z,101868.70
2017-12-04T07:34:36.430Z,101868.31
2017-12-04T07:35:38.941Z,101868.59
2017-12-04T07:36:41.410Z,101879.42
2017-12-04T07:37:43.901Z,101874.77
2017-12-04T07:38:46.386Z,101871.75
2017-12-04T07:39:48.889Z,101882.03
2017-12-04T07:40:51.378Z,101883.53
2017-12-04T07:41:53.854Z,101881.59
2017-12-04T07:42:56.345Z,101872.12
2017-12-04T07:43:58.818Z,101879.41
2017-12-04T07:45:01.305Z,101879.83
2017-12-04T07:46:03.784Z,101883.12
2017-12-04T07:47:06.262Z,101883.83
2017-12-04T07:48:08.776Z,101881.61
2017-12-04T07:49:11.251Z,101883.13
2017-12-04T07:50:13.737Z,101888.21
2017-12-04T07:51:16.224Z,101888.77
2017-12-04T07:52:18.708Z,101887.00
2017-12-04T07:53:21.210Z,101888.89
2017-12-04T07:54:23.700Z,101890.27
2017-12-04T07:55:26.197Z,101889.45
2017-12-04T07:56:28.684Z,101886.85
2017-12-04T07:57:31.152Z,101884.67
2017-12-04T07:58:33.718Z,101892.34
2017-12-04T07:59:36.205Z,101891.63
2017-12-04T08:00:38.675Z,101896.16
2017-12-04T08:01:41.148Z,101895.20
2017-12-04T08:02:43.641Z,101903.29
2017-12-04T08:03:46.124Z,101910.42
2017-12-04T08:04:48.590Z,101900.55
2017-12-04T08:05:51.081Z,101905.48
2017-12-04T08:06:53.567Z,101913.02
2017-12-04T08:07:56.042Z,101913.30
2017-12-04T08:08:58.510Z,101915.73
2017-12-04T08:10:00.994Z,101909.16
2017-12-04T08:11:03.485Z,101918.48
2017-12-04T08:12:05.977Z,101916.42
2017-12-04T08:13:08.447Z,101916.29
2017-12-04T08:14:10.937Z,101922.05
2017-12-04T08:15:13.410Z,101916.84
2017-12-04T08:16:15.883Z,101917.39
2017-12-04T08:17:18.412Z,101919.44
2017-12-04T08:18:20.922Z,101913.69
2017-12-04T08:19:23.410Z,101916.16
2017-12-04T08:20:25.887Z,101919.58
2017-12-04T08:21:28.380Z,101913.69
2017-12-04T08:22:30.851Z,101916.44
2017-12-04T08:23:33.332Z,101914.52
2017-12-04T08:24:35.875Z,101921.36
2017-12-04T08:25:38.361Z,101923.28
2017-12-04T08:26:40.857Z,101930.26
2017-12-04T08:27:43.508Z,101923.27
2017-12-04T08:28:45.986Z,101919.73
2017-12-04T08:29:48.454Z,101924.53
2017-12-04T08:30:50.951Z,101919.46
2017-12-04T08:31:53.448Z,101922.75
2017-12-04T08:32:55.927Z,101920.55
2017-12-04T08:33:58.421Z,101919.31
2017-12-04T08:35:00.913Z,101917.80
2017-12-04T08:36:03.418Z,101924.55
2017-12-04T08:37:05.891Z,101922.63
2017-12-04T08:38:08.358Z,101914.81
2017-12-04T08:39:10.860Z,101915.34
2017-12-04T08:40:13.354Z,101912.05
2017-12-04T08:41:15.831Z,101913.84
2017-12-04T08:42:18.323Z,101912.18
2017-12-04T08:43:20.794Z,101911.77
2017-12-04T08:44:23.271Z,101909.25
2017-12-04T08:45:25.760Z,101908.29
2017-12-04T08:46:28.255Z,101913.25
2017-12-04T08:47:30.740Z,101915.58
2017-12-04T08:48:33.218Z,101915.06
2017-12-04T08:49:35.694Z,101914.92
2017-12-04T08:50:38.171Z,101919.98
2017-12-04T08:51:40.638Z,101917.38
2017-12-04T08:52:43.125Z,101923.82
2017-12-04T08:53:45.602Z,101926.02
2017-12-04T08:54:48.083Z,101926.84
2017-12-04T08:55:50.563Z,101923.69
2017-12-04T08:56:53.036Z,101928.62
2017-12-04T08:57:55.517Z,101925.33
2017-12-04T08:58:58.008Z,101915.88
2017-12-04T09:00:00.512Z,101929.44
2017-12-04T09:01:03.005Z,101923.69
2017-12-04T09:02:05.486Z,101923.41
2017-12-04T09:03:07.973Z,101926.02
2017-12-04T09:04:10.462Z,101933.55
2017-12-04T09:05:12.939Z,101930.40
2017-12-04T09:06:15.475Z,101923.27
2017-12-04T09:07:17.970Z,101925.33
2017-12-04T09:08:20.448Z,101927.41
2017-12-04T09:09:22.939Z,101930.15
2017-12-04T09:10:25.433Z,101927.69
2017-12-04T09:11:27.920Z,101935.63
2017-12-04T09:12:30.400Z,101930.15
2017-12-04T09:13:32.891Z,101936.45
2017-12-04T09:14:35.371Z,101943.02
2017-12-04T09:15:37.922Z,101933.84
2017-12-04T09:16:40.402Z,101936.17
2017-12-04T09:17:42.870Z,101942.06
2017-12-04T09:18:45.361Z,101943.57
2017-12-04T09:19:47.835Z,101946.45
2017-12-04T09:20:50.388Z,101938.23
2017-12-04T09:21:52.826Z,101948.78
2017-12-04T09:22:55.303Z,101954.12
2017-12-04T09:23:57.787Z,101953.71
2017-12-04T09:25:00.276Z,101950.56
2017-12-04T09:26:02.774Z,101954.81
2017-12-04T09:27:05.260Z,101953.98
2017-12-04T09:28:07.735Z,101959.47
2017-12-04T09:29:10.233Z,101955.77
2017-12-04T09:30:12.702Z,101961.94
2017-12-04T09:31:15.171Z,101958.38
2017-12-04T09:32:17.641Z,101955.63
2017-12-04T09:33:20.130Z,101958.51
2017-12-04T09:34:22.620Z,101960.42
2017-12-04T09:35:25.149Z,101960.02
2017-12-04T09:36:27.707Z,101963.72
2017-12-04T09:37:30.205Z,101964.27
2017-12-04T09:38:32.669Z,101962.48
2017-12-04T09:39:35.138Z,101971.11
2017-12-04T09:40:37.952Z,101964.81
2017-12-04T09:41:40.715Z,101964.40
2017-12-04T09:42:44.369Z,101969.33
2017-12-04T09:43:47.160Z,101968.78
2017-12-04T09:44:49.650Z,101974.27
2017-12-04T09:45:52.168Z,101972.34
2017-12-04T09:46:54.638Z,101973.85
2017-12-04T09:47:57.113Z,101976.73
2017-12-04T09:48:59.624Z,101978.23
2017-12-04T09:50:02.095Z,101977.69
2017-12-04T09:51:04.588Z,101978.65
2017-12-04T09:52:07.080Z,101972.89
2017-12-04T09:53:09.570Z,101972.34
2017-12-04T09:54:12.077Z,101971.94
2017-12-04T09:55:14.555Z,101973.72
2017-12-04T09:56:17.027Z,101973.58
2017-12-04T09:57:19.528Z,101974.95
2017-12-04T09:58:22.025Z,101977.14
2017-12-04T09:59:24.505Z,101974.81
2017-12-04T10:00:27.000Z,101977.00
2017-12-04T10:01:29.501Z,101980.16
2017-12-04T10:02:32.016Z,101979.06
2017-12-04T10:03:34.508Z,101982.48
2017-12-04T10:04:36.993Z,101978.23
2017-12-04T10:05:39.489Z,101983.99
2017-12-04T10:06:41.989Z,101984.54
2017-12-04T10:07:44.969Z,101986.19
2017-12-04T10:08:47.461Z,101988.24
2017-12-04T10:09:49.953Z,101981.91
2017-12-04T10:10:52.422Z,101982.17
2017-12-04T10:11:54.906Z,101985.87
2017-12-04T10:12:57.382Z,101985.47
2017-12-04T10:13:59.865Z,101987.45
2017-12-04T10:15:02.352Z,102000.59
2017-12-04T10:16:04.836Z,101998.41
2017-12-04T10:17:07.328Z,102001.00
2017-12-04T10:18:09.826Z,102001.83
2017-12-04T10:19:12.378Z,101993.60
2017-12-04T10:20:14.841Z,101993.05
2017-12-04T10:21:17.319Z,101994.25
2017-12-04T10:22:19.812Z,101987.81
2017-12-04T10:23:22.282Z,101988.63
2017-12-04T10:24:24.753Z,101988.77
2017-12-04T10:26:29.024Z,101982.60
2017-12-04T10:27:31.510Z,101978.63
2017-12-04T10:28:34.144Z,101992.59
2017-12-04T10:29:36.616Z,101990.95
2017-12-04T10:30:39.133Z,101987.48
2017-12-04T10:31:41.606Z,101992.97
2017-12-04T10:32:44.095Z,101994.06
2017-12-04T10:33:46.566Z,101985.16
2017-12-04T10:34:49.165Z,101986.66
2017-12-04T10:35:51.652Z,101988.98
2017-12-04T10:36:54.147Z,101985.56
2017-12-04T10:37:56.628Z,101992.13
2017-12-04T10:38:59.121Z,101994.05
2017-12-04T10:40:01.605Z,101994.73
2017-12-04T10:41:04.093Z,101989.25
2017-12-04T10:42:06.566Z,101992.53
2017-12-04T10:43:09.036Z,101999.93
2017-12-04T10:44:11.588Z,101991.03
2017-12-04T10:45:14.058Z,101996.09
2017-12-04T10:46:16.545Z,102000.20
2017-12-04T10:47:19.023Z,101997.59
2017-12-04T10:48:21.517Z,101993.21
2017-12-04T10:49:24.002Z,101992.80
2017-12-04T10:50:26.492Z,101994.17
2017-12-04T10:51:28.980Z,101992.11
2017-12-04T10:52:31.480Z,101985.81
2017-12-04T10:53:33.954Z,101990.33
2017-12-04T10:54:36.427Z,101990.05
2017-12-04T10:55:38.967Z,101992.80
2017-12-04T10:56:41.456Z,101987.42
2017-12-04T10:57:43.927Z,101997.41
2017-12-04T10:58:46.473Z,101991.53
2017-12-04T10:59:49.085Z,101995.36
2017-12-04T11:00:51.558Z,101988.10
2017-12-04T11:01:54.035Z,101994.41
2017-12-04T11:02:56.531Z,101995.49
2017-12-04T11:03:59.066Z,101996.45
2017-12-04T11:05:01.553Z,101996.59
2017-12-04T11:06:04.040Z,101995.22
2017-12-04T11:07:06.525Z,101996.72
2017-12-04T11:08:09.107Z,101997.67
2017-12-04T11:09:11.690Z,101994.94
2017-12-04T11:10:14.172Z,101996.85
2017-12-04T11:11:16.648Z,101994.66
2017-12-04T11:12:19.127Z,102000.69
2017-12-04T11:13:21.595Z,101991.65
2017-12-04T11:14:24.080Z,101996.58
2017-12-04T11:15:26.554Z,101996.17
2017-12-04T11:16:29.027Z,101993.16
2017-12-04T11:17:31.494Z,101996.84
2017-12-04T11:18:33.977Z,101989.05
2017-12-04T11:19:36.456Z,101993.28
2017-12-04T11:20:38.941Z,101989.73
2017-12-04T11:21:41.420Z,101993.83
2017-12-04T11:22:43.929Z,101993.02
2017-12-04T11:23:46.396Z,101992.59
2017-12-04T11:24:48.875Z,101996.70
2017-12-04T11:25:51.357Z,101994.52
2017-12-04T11:26:53.830Z,101998.20
2017-12-04T11:27:56.306Z,101999.58
2017-12-04T11:28:58.797Z,101999.16
2017-12-04T11:30:01.321Z,102000.13
2017-12-04T11:31:03.766Z,102001.62
2017-12-04T11:32:06.657Z,102002.03
2017-12-04T11:33:09.209Z,102007.23
2017-12-04T11:34:11.861Z,102001.22
2017-12-04T11:35:14.462Z,102001.22
2017-12-04T11:36:17.031Z,102011.75
2017-12-04T11:37:19.630Z,102007.23
2017-12-04T11:38:22.106Z,102012.30
2017-12-04T11:39:24.582Z,102009.14
2017-12-04T11:40:27.051Z,102013.66
2017-12-04T11:41:29.542Z,102006.55
2017-12-04T11:42:32.060Z,102008.73
2017-12-04T11:43:34.531Z,102006.13
2017-12-04T11:44:37.077Z,102009.41
2017-12-04T11:45:39.592Z,102004.35
2017-12-04T11:46:42.059Z,102009.00
2017-12-04T11:47:44.863Z,102008.05
2017-12-04T11:48:47.348Z,102008.18
2017-12-04T11:49:49.866Z,102013.21
2017-12-04T11:50:52.303Z,102009.55
2017-12-04T11:51:54.788Z,102014.17
2017-12-04T11:52:57.256Z,102009.11
2017-12-04T11:53:59.743Z,102009.66
2017-12-04T11:55:02.206Z,102013.21